Austinville, Pennsylvania
Current Conditions -  °F | °C
As of 5:53 PM on Sunday 21 Dec 2014 (Local Time) from KELM Reporting Station
Overcast Overcast  
Wind Chill: 31°   Ceiling: 2600
Heat Index: 31°   Visibility: 10mi
Dew Point: 23°   Wind: 3mph
Humidity: 72%   Direction: 310°NW
Pressure: 30.29"   Gusts: NA
Location:  41.8495°N, 76.7925°W
Report Text: KELM 212253Z AUTO 31003KT 10SM OVC026 M01/M05 A3029 RMK AO2 SLP269 T10061050
Loading
Personal Weather Stations






























Interactive Weather Map New forecast layout! Learn more

10-Day Weather Forecast

Advertisements
Track Severe Weather on mobile